createdAt,value
2023-03-28T00:01:47.840Z,99910.41
2023-03-28T00:04:22.969Z,99910.75
2023-03-28T00:06:55.721Z,99900.09
2023-03-28T00:09:26.338Z,99899.09
2023-03-28T00:11:56.105Z,99894.72
2023-03-28T00:14:26.090Z,99915.31
2023-03-28T00:16:55.740Z,99906.97
2023-03-28T00:19:25.506Z,99919.03
2023-03-28T00:21:57.789Z,99922.13
2023-03-28T00:24:28.172Z,99925.94
2023-03-28T00:27:00.598Z,99944.44
2023-03-28T00:29:30.342Z,99943.91
2023-03-28T00:32:00.554Z,99949.03
2023-03-28T00:34:30.763Z,99964.44
2023-03-28T00:37:05.588Z,99962.34
2023-03-28T00:39:35.302Z,99985.50
2023-03-28T00:42:05.264Z,99998.03
2023-03-28T00:44:50.401Z,99987.38
2023-03-28T00:47:28.704Z,99993.75
2023-03-28T00:50:03.174Z,99999.97
2023-03-28T00:52:40.235Z,99996.56
2023-03-28T00:55:15.215Z,99991.63
2023-03-28T00:57:46.608Z,99996.88
2023-03-28T01:00:19.153Z,99998.44
2023-03-28T01:02:53.551Z,100008.13
2023-03-28T01:05:29.316Z,99994.03
2023-03-28T01:08:08.968Z,99990.91
2023-03-28T01:10:39.336Z,99996.56
2023-03-28T01:13:11.699Z,99993.50
2023-03-28T01:15:42.346Z,99995.41
2023-03-28T01:18:13.558Z,99994.13
2023-03-28T01:21:21.746Z,99996.47
2023-03-28T01:24:25.977Z,100010.31
2023-03-28T01:26:58.732Z,100009.22
2023-03-28T01:30:03.673Z,100012.25
2023-03-28T01:33:15.200Z,100013.69
2023-03-28T01:36:14.229Z,100019.31
2023-03-28T01:39:13.642Z,100027.34
2023-03-28T01:41:50.529Z,100020.75
2023-03-28T01:44:31.522Z,100024.47
2023-03-28T01:47:08.050Z,100026.00
2023-03-28T01:49:47.423Z,100019.41
2023-03-28T01:52:23.208Z,100015.53
2023-03-28T01:55:03.384Z,100007.00
2023-03-28T01:57:36.962Z,100013.91
2023-03-28T02:00:15.780Z,100014.06
2023-03-28T02:03:11.484Z,100009.75
2023-03-28T02:05:48.626Z,100011.88
2023-03-28T02:08:21.728Z,100015.22
2023-03-28T02:10:59.198Z,100017.97
2023-03-28T02:13:38.984Z,100030.00
2023-03-28T02:16:37.273Z,100027.34
2023-03-28T02:19:27.279Z,100033.47
2023-03-28T02:22:17.910Z,100022.41
2023-03-28T02:24:51.967Z,100033.66
2023-03-28T02:27:51.327Z,100035.75
2023-03-28T02:30:32.936Z,100039.38
2023-03-28T02:33:03.830Z,100037.31
2023-03-28T02:35:45.784Z,100035.97
2023-03-28T02:38:26.459Z,100038.56
2023-03-28T02:41:09.912Z,100037.47
2023-03-28T02:43:57.534Z,100035.59
2023-03-28T02:46:33.087Z,100034.88
2023-03-28T02:49:27.162Z,100035.72
2023-03-28T02:52:08.733Z,100036.50
2023-03-28T02:54:45.837Z,100043.59
2023-03-28T02:57:36.661Z,100044.69
2023-03-28T03:00:16.103Z,100042.16
2023-03-28T03:02:48.213Z,100048.75
2023-03-28T03:05:20.320Z,100048.91
2023-03-28T03:07:50.371Z,100052.69
2023-03-28T03:10:22.168Z,100057.88
2023-03-28T03:12:52.078Z,100062.50
2023-03-28T03:15:26.079Z,100075.50
2023-03-28T03:18:00.169Z,100074.59
2023-03-28T03:20:34.043Z,100072.19
2023-03-28T03:23:06.448Z,100080.69
2023-03-28T03:25:37.940Z,100074.91
2023-03-28T03:28:33.799Z,100081.16
2023-03-28T03:31:09.514Z,100074.47
2023-03-28T03:33:57.913Z,100080.28
2023-03-28T03:36:33.264Z,100094.50
2023-03-28T03:39:03.826Z,100094.25
2023-03-28T03:41:33.740Z,100095.66
2023-03-28T03:44:03.437Z,100090.78
2023-03-28T03:46:36.001Z,100092.44
2023-03-28T03:49:06.110Z,100098.06
2023-03-28T03:51:36.322Z,100087.88
2023-03-28T03:54:06.603Z,100097.72
2023-03-28T03:56:39.644Z,100094.75
2023-03-28T03:59:09.553Z,100102.56
2023-03-28T04:01:44.305Z,100110.94
2023-03-28T04:04:37.508Z,100116.88
2023-03-28T04:07:25.403Z,100111.69
2023-03-28T04:09:57.738Z,100117.16
2023-03-28T04:12:30.360Z,100123.09
2023-03-28T04:15:00.172Z,100126.75
2023-03-28T04:18:03.823Z,100117.09
2023-03-28T04:20:41.549Z,100131.63
2023-03-28T04:23:12.111Z,100135.16
2023-03-28T04:25:43.754Z,100141.09
2023-03-28T04:28:31.529Z,100143.25
2023-03-28T04:31:07.571Z,100152.44
2023-03-28T04:34:00.602Z,100161.28
2023-03-28T04:36:31.600Z,100155.34
2023-03-28T04:39:06.521Z,100148.91
2023-03-28T04:41:48.276Z,100157.13
2023-03-28T04:44:41.193Z,100165.94
2023-03-28T04:47:13.543Z,100167.53
2023-03-28T04:49:46.329Z,100166.22
2023-03-28T04:52:16.288Z,100172.91
2023-03-28T04:54:48.571Z,100181.19
2023-03-28T04:57:19.542Z,100185.69
2023-03-28T04:59:54.742Z,100193.66
2023-03-28T05:02:44.505Z,100190.22
2023-03-28T05:05:19.204Z,100193.19
2023-03-28T05:07:49.078Z,100192.81
2023-03-28T05:10:22.774Z,100201.94
2023-03-28T05:12:53.862Z,100195.25
2023-03-28T05:15:25.438Z,100196.34
2023-03-28T05:18:03.492Z,100207.69
2023-03-28T05:20:38.807Z,100207.13
2023-03-28T05:23:08.856Z,100202.47
2023-03-28T05:25:41.898Z,100221.81
2023-03-28T05:28:12.805Z,100224.78
2023-03-28T05:30:51.005Z,100231.50
2023-03-28T05:33:21.124Z,100230.13
2023-03-28T05:35:54.730Z,100240.81
2023-03-28T05:38:24.643Z,100237.19
2023-03-28T05:40:59.454Z,100242.88
2023-03-28T05:43:29.345Z,100246.28
2023-03-28T05:45:59.387Z,100252.38
2023-03-28T05:48:37.022Z,100253.94
2023-03-28T05:51:09.852Z,100260.19
2023-03-28T05:53:39.587Z,100260.00
2023-03-28T05:56:12.982Z,100266.97
2023-03-28T05:58:43.047Z,100264.09
2023-03-28T06:01:12.954Z,100266.56
2023-03-28T06:03:42.864Z,100271.50
2023-03-28T06:06:15.446Z,100273.56
2023-03-28T06:08:45.220Z,100271.78
2023-03-28T06:11:15.517Z,100269.38
2023-03-28T06:13:54.223Z,100271.31
2023-03-28T06:16:30.578Z,100268.78
2023-03-28T06:19:16.615Z,100264.59
2023-03-28T06:21:55.101Z,100269.72
2023-03-28T06:24:24.971Z,100266.16
2023-03-28T06:26:54.721Z,100259.28
2023-03-28T06:29:27.045Z,100265.59
2023-03-28T06:32:04.393Z,100263.91
2023-03-28T06:34:34.090Z,100271.84
2023-03-28T06:37:07.598Z,100262.34
2023-03-28T06:39:53.346Z,100259.53
2023-03-28T06:42:23.484Z,100262.66
2023-03-28T06:45:07.376Z,100268.16
2023-03-28T06:47:45.678Z,100267.09
2023-03-28T06:50:15.692Z,100271.06
2023-03-28T06:53:04.316Z,100276.28
2023-03-28T06:55:34.281Z,100276.09
2023-03-28T06:58:03.972Z,100273.25
2023-03-28T07:00:43.750Z,100270.75
2023-03-28T07:03:36.594Z,100274.06
2023-03-28T07:06:10.197Z,100280.63
2023-03-28T07:08:42.471Z,100293.50
2023-03-28T07:11:12.318Z,100297.34
2023-03-28T07:13:44.275Z,100302.94
2023-03-28T07:18:46.418Z,100308.66
2023-03-28T07:21:22.734Z,100312.41
2023-03-28T07:23:55.085Z,100310.66
2023-03-28T07:26:32.623Z,100321.53
2023-03-28T07:29:02.363Z,100315.56
2023-03-28T07:31:32.258Z,100321.94
2023-03-28T07:34:02.621Z,100324.91
2023-03-28T07:36:32.514Z,100330.16
2023-03-28T07:39:13.720Z,100346.28
2023-03-28T07:41:43.493Z,100340.03
2023-03-28T07:44:13.318Z,100340.59
2023-03-28T07:46:43.428Z,100339.47
2023-03-28T07:49:15.524Z,100346.00
2023-03-28T07:51:45.523Z,100340.84
2023-03-28T07:54:18.250Z,100352.31
2023-03-28T07:56:50.537Z,100353.19
2023-03-28T07:59:40.726Z,100353.97
2023-03-28T08:02:15.874Z,100355.88
2023-03-28T08:04:46.256Z,100361.47
2023-03-28T08:07:19.041Z,100362.50
2023-03-28T08:09:52.481Z,100357.28
2023-03-28T08:12:26.537Z,100359.69
2023-03-28T08:14:56.506Z,100370.69
2023-03-28T08:17:27.173Z,100363.75
2023-03-28T08:19:59.029Z,100373.63
2023-03-28T08:22:31.587Z,100372.75
2023-03-28T08:25:39.067Z,100372.00
2023-03-28T08:28:10.145Z,100368.00
2023-03-28T08:30:40.249Z,100362.28
2023-03-28T08:33:10.278Z,100367.25
2023-03-28T08:35:41.858Z,100360.03
2023-03-28T08:38:18.706Z,100360.94
2023-03-28T08:41:02.308Z,100350.34
2023-03-28T08:44:11.717Z,100352.84
2023-03-28T08:46:44.838Z,100357.13
2023-03-28T08:49:19.264Z,100359.25
2023-03-28T08:51:52.930Z,100356.09
2023-03-28T08:54:29.134Z,100357.31
2023-03-28T08:57:06.515Z,100353.78
2023-03-28T08:59:45.061Z,100357.19
2023-03-28T09:02:20.099Z,100351.72
2023-03-28T09:04:50.792Z,100352.53
2023-03-28T09:07:30.937Z,100344.44
2023-03-28T09:10:12.253Z,100345.25
2023-03-28T09:13:09.792Z,100338.53
2023-03-28T09:15:48.501Z,100347.09
2023-03-28T09:18:52.212Z,100354.44
2023-03-28T09:21:31.322Z,100347.75
2023-03-28T09:24:14.489Z,100346.06
2023-03-28T09:27:07.613Z,100339.16
2023-03-28T09:29:45.964Z,100343.59
2023-03-28T09:32:23.453Z,100348.13
2023-03-28T09:34:55.051Z,100347.78
2023-03-28T09:37:38.202Z,100355.59
2023-03-28T09:40:20.960Z,100352.66
2023-03-28T09:43:18.904Z,100357.94
2023-03-28T09:46:08.661Z,100361.16
2023-03-28T09:48:51.505Z,100349.22
2023-03-28T09:51:25.471Z,100355.28
2023-03-28T09:53:56.009Z,100356.53
2023-03-28T09:56:30.031Z,100360.72
2023-03-28T09:59:14.849Z,100364.88
2023-03-28T10:01:54.734Z,100364.47
2023-03-28T10:04:36.511Z,100363.44
2023-03-28T10:07:22.453Z,100368.25
2023-03-28T10:10:03.622Z,100369.84
2023-03-28T10:12:36.752Z,100371.19
2023-03-28T10:15:09.786Z,100367.53
2023-03-28T10:18:03.237Z,100371.94
2023-03-28T10:20:40.368Z,100370.72
2023-03-28T10:23:10.568Z,100372.19
2023-03-28T10:25:44.599Z,100375.72
2023-03-28T10:28:19.131Z,100381.81
2023-03-28T10:30:57.654Z,100389.13
2023-03-28T10:33:35.839Z,100396.25
2023-03-28T10:36:29.603Z,100390.56
2023-03-28T10:39:02.527Z,100383.22
2023-03-28T10:41:59.719Z,100389.88
2023-03-28T10:45:02.650Z,100384.72
2023-03-28T10:47:37.421Z,100377.84
2023-03-28T10:50:23.946Z,100383.25
2023-03-28T10:52:58.761Z,100386.22
2023-03-28T10:55:41.396Z,100388.25
2023-03-28T10:58:29.015Z,100384.69
2023-03-28T11:01:08.014Z,100384.44
2023-03-28T11:04:04.696Z,100383.97
2023-03-28T11:06:44.014Z,100382.31
2023-03-28T11:09:22.452Z,100388.00
2023-03-28T11:12:28.386Z,100385.31
2023-03-28T11:15:09.471Z,100388.72
2023-03-28T11:17:58.731Z,100384.09
2023-03-28T11:20:36.158Z,100388.53
2023-03-28T11:23:46.217Z,100392.03
2023-03-28T11:26:50.292Z,100394.16
2023-03-28T11:29:51.612Z,100388.28
2023-03-28T11:32:30.546Z,100389.31
2023-03-28T11:35:08.005Z,100380.19
2023-03-28T11:37:44.828Z,100390.13
2023-03-28T11:40:25.700Z,100381.41
2023-03-28T11:43:11.682Z,100381.41
2023-03-28T11:45:51.047Z,100378.50
2023-03-28T11:48:33.258Z,100383.91
2023-03-28T11:51:12.919Z,100373.28
2023-03-28T11:53:55.931Z,100378.53
2023-03-28T11:56:44.718Z,100382.75
2023-03-28T11:59:23.076Z,100373.94
2023-03-28T12:01:56.944Z,100376.09
2023-03-28T12:04:31.853Z,100372.25
2023-03-28T12:07:13.150Z,100374.78
2023-03-28T12:10:03.889Z,100375.59
2023-03-28T12:12:41.674Z,100366.81
2023-03-28T12:15:17.355Z,100364.53
2023-03-28T12:18:15.653Z,100362.91
2023-03-28T12:20:56.338Z,100366.84
2023-03-28T12:23:40.687Z,100366.31
2023-03-28T12:26:34.066Z,100362.59
2023-03-28T12:29:17.578Z,100358.88
2023-03-28T12:31:54.176Z,100352.56
2023-03-28T12:34:32.813Z,100352.28
2023-03-28T12:37:33.423Z,100349.47
2023-03-28T12:40:20.054Z,100343.22
2023-03-28T12:42:51.713Z,100339.84
2023-03-28T12:45:41.404Z,100333.78
2023-03-28T12:48:16.385Z,100336.38
2023-03-28T12:50:52.290Z,100336.88
2023-03-28T12:53:24.377Z,100336.22
2023-03-28T12:55:55.561Z,100343.63
2023-03-28T12:58:30.146Z,100346.22
2023-03-28T13:01:30.593Z,100336.88
2023-03-28T13:04:31.362Z,100344.22
2023-03-28T13:07:26.286Z,100335.28
2023-03-28T13:10:02.597Z,100339.72
2023-03-28T13:12:49.492Z,100339.63
2023-03-28T13:15:31.802Z,100340.19
2023-03-28T13:18:31.747Z,100339.53
2023-03-28T13:21:04.525Z,100340.41
2023-03-28T13:23:38.352Z,100338.16
2023-03-28T13:26:09.745Z,100329.03
2023-03-28T13:28:46.657Z,100327.53
2023-03-28T13:31:24.809Z,100331.75
2023-03-28T13:34:02.015Z,100327.78
2023-03-28T13:36:34.905Z,100328.66
2023-03-28T13:39:24.392Z,100325.94
2023-03-28T13:42:02.976Z,100321.16
2023-03-28T13:44:44.657Z,100314.28
2023-03-28T13:47:25.510Z,100320.41
2023-03-28T13:50:03.972Z,100313.34
2023-03-28T13:52:33.799Z,100314.66
2023-03-28T13:55:04.849Z,100311.69
2023-03-28T13:57:34.633Z,100305.03
2023-03-28T14:00:08.064Z,100305.09
2023-03-28T14:02:46.639Z,100308.16
2023-03-28T14:05:22.964Z,100299.78
2023-03-28T14:07:54.523Z,100299.63
2023-03-28T14:10:33.356Z,100292.16
2023-03-28T14:13:07.302Z,100290.94
2023-03-28T14:15:39.989Z,100293.03
2023-03-28T14:18:14.991Z,100283.13
2023-03-28T14:20:48.315Z,100279.75
2023-03-28T14:23:31.588Z,100277.09
2023-03-28T14:26:04.168Z,100273.13
2023-03-28T14:28:42.857Z,100271.19
2023-03-28T14:31:16.503Z,100275.41
2023-03-28T14:33:47.943Z,100273.53
2023-03-28T14:36:21.233Z,100271.53
2023-03-28T14:38:51.244Z,100268.13
2023-03-28T14:41:27.697Z,100255.03
2023-03-28T14:43:59.486Z,100257.41
2023-03-28T14:46:31.555Z,100254.47
2023-03-28T14:49:03.914Z,100257.50
2023-03-28T14:51:46.112Z,100257.13
2023-03-28T14:54:18.482Z,100252.00
2023-03-28T14:56:49.512Z,100257.53
2023-03-28T14:59:21.002Z,100249.03
2023-03-28T15:01:52.828Z,100245.25
2023-03-28T15:04:25.284Z,100246.84
2023-03-28T15:07:01.249Z,100243.88
2023-03-28T15:09:36.588Z,100244.34
2023-03-28T15:12:09.672Z,100233.03
2023-03-28T15:14:44.560Z,100236.16
2023-03-28T15:17:21.043Z,100233.34
2023-03-28T15:19:56.106Z,100236.28
2023-03-28T15:22:33.688Z,100212.81
2023-03-28T15:25:03.517Z,100221.50
2023-03-28T15:27:37.202Z,100223.72
2023-03-28T15:30:09.981Z,100219.91
2023-03-28T15:32:39.758Z,100211.84
2023-03-28T15:35:26.546Z,100216.13
2023-03-28T15:38:08.307Z,100209.75
2023-03-28T15:40:43.463Z,100208.00
2023-03-28T15:43:32.060Z,100203.19
2023-03-28T15:46:04.171Z,100200.22
2023-03-28T15:48:36.865Z,100201.66
2023-03-28T15:51:09.024Z,100199.84
2023-03-28T15:53:44.221Z,100189.69
2023-03-28T15:56:28.077Z,100191.66
2023-03-28T15:59:01.906Z,100182.00
2023-03-28T16:01:33.282Z,100177.00
2023-03-28T16:04:25.680Z,100185.34
2023-03-28T16:06:58.721Z,100189.03
2023-03-28T16:09:31.032Z,100174.16
2023-03-28T16:12:02.774Z,100174.28
2023-03-28T16:15:08.982Z,100167.38
2023-03-28T16:18:01.596Z,100163.06
2023-03-28T16:20:49.296Z,100165.41
2023-03-28T16:23:19.075Z,100163.22
2023-03-28T16:25:51.553Z,100166.09
2023-03-28T16:28:21.736Z,100154.47
2023-03-28T16:30:53.101Z,100155.94
2023-03-28T16:33:22.908Z,100156.56
2023-03-28T16:35:52.737Z,100156.44
2023-03-28T16:38:22.511Z,100157.69
2023-03-28T16:40:54.744Z,100157.34
2023-03-28T16:43:24.446Z,100152.13
2023-03-28T16:45:54.194Z,100155.94
2023-03-28T16:48:23.884Z,100156.28
2023-03-28T16:50:58.948Z,100153.63
2023-03-28T16:53:29.115Z,100156.38
2023-03-28T16:56:01.813Z,100147.81
2023-03-28T16:58:31.946Z,100143.09
2023-03-28T17:01:07.137Z,100144.56
2023-03-28T17:03:37.281Z,100153.28
2023-03-28T17:06:09.323Z,100154.53
2023-03-28T17:08:39.912Z,100139.78
2023-03-28T17:11:14.747Z,100152.91
2023-03-28T17:13:47.661Z,100147.13
2023-03-28T17:16:17.389Z,100140.38
2023-03-28T17:18:47.345Z,100148.63
2023-03-28T17:21:18.882Z,100152.78
2023-03-28T17:23:51.126Z,100151.03
2023-03-28T17:26:23.474Z,100150.47
2023-03-28T17:28:53.241Z,100155.78
2023-03-28T17:31:23.609Z,100146.41
2023-03-28T17:33:53.450Z,100135.91
2023-03-28T17:36:25.838Z,100136.06
2023-03-28T17:38:58.164Z,100143.50
2023-03-28T17:41:31.964Z,100136.19
2023-03-28T17:44:02.482Z,100132.38
2023-03-28T17:46:32.202Z,100128.97
2023-03-28T17:49:01.972Z,100132.09
2023-03-28T17:51:31.739Z,100134.53
2023-03-28T17:54:01.532Z,100129.63
2023-03-28T17:56:33.793Z,100125.50
2023-03-28T17:59:04.148Z,100137.72
2023-03-28T18:01:34.346Z,100137.25
2023-03-28T18:04:04.340Z,100131.06
2023-03-28T18:06:59.968Z,100139.03
2023-03-28T18:09:30.331Z,100125.63
2023-03-28T18:12:03.244Z,100127.56
2023-03-28T18:14:32.959Z,100123.38
2023-03-28T18:17:03.725Z,100111.66
2023-03-28T18:19:34.083Z,100108.47
2023-03-28T18:22:03.821Z,100102.50
2023-03-28T18:24:34.300Z,100102.88
2023-03-28T18:27:06.762Z,100091.38
2023-03-28T18:29:36.554Z,100082.94
2023-03-28T18:32:06.642Z,100091.16
2023-03-28T18:34:36.354Z,100095.31
2023-03-28T18:37:06.714Z,100095.47
2023-03-28T18:39:36.458Z,100083.56
2023-03-28T18:42:09.216Z,100093.69
2023-03-28T18:44:40.958Z,100088.44
2023-03-28T18:47:10.926Z,100082.19
2023-03-28T18:49:41.105Z,100081.97
2023-03-28T18:52:11.576Z,100081.63
2023-03-28T18:54:45.981Z,100073.59
2023-03-28T18:57:18.725Z,100082.69
2023-03-28T18:59:48.591Z,100070.91
2023-03-28T19:02:18.351Z,100070.94
2023-03-28T19:04:49.516Z,100079.44
2023-03-28T19:07:21.123Z,100083.38
2023-03-28T19:09:53.751Z,100088.75
2023-03-28T19:12:27.192Z,100096.09
2023-03-28T19:14:56.992Z,100086.78
2023-03-28T19:17:27.297Z,100086.19
2023-03-28T19:19:57.173Z,100084.59
2023-03-28T19:22:27.519Z,100083.22
2023-03-28T19:24:57.302Z,100065.59
2023-03-28T19:27:29.745Z,100075.88
2023-03-28T19:29:59.567Z,100075.63
2023-03-28T19:32:30.759Z,100070.81
2023-03-28T19:35:00.536Z,100071.66
2023-03-28T19:37:30.331Z,100078.47
2023-03-28T19:40:01.781Z,100073.34
2023-03-28T19:42:35.052Z,100064.50
2023-03-28T19:45:04.954Z,100057.38
2023-03-28T19:47:34.663Z,100055.16
2023-03-28T19:50:04.542Z,100056.59
2023-03-28T19:52:34.248Z,100053.25
2023-03-28T19:55:04.287Z,100052.84
2023-03-28T19:57:36.526Z,100054.47
2023-03-28T20:00:06.978Z,100051.13
2023-03-28T20:02:42.357Z,100054.00
2023-03-28T20:05:12.571Z,100051.75
2023-03-28T20:07:42.257Z,100046.66
2023-03-28T20:10:12.896Z,100045.00
2023-03-28T20:12:45.142Z,100042.34
2023-03-28T20:15:14.879Z,100040.66
2023-03-28T20:17:44.562Z,100042.91
2023-03-28T20:20:15.433Z,100034.47
2023-03-28T20:22:45.161Z,100027.47
2023-03-28T20:25:14.859Z,100014.22
2023-03-28T20:27:47.729Z,100016.16
2023-03-28T20:30:17.796Z,100005.84
2023-03-28T20:32:49.641Z,100010.31
2023-03-28T20:35:19.570Z,100014.75
2023-03-28T20:37:49.309Z,100008.75
2023-03-28T20:40:19.002Z,100001.81
2023-03-28T20:42:52.631Z,99993.38
2023-03-28T20:45:24.866Z,99996.69
2023-03-28T20:47:58.752Z,99995.56
2023-03-28T20:50:34.036Z,99995.97
2023-03-28T20:53:04.262Z,100001.53
2023-03-28T20:55:34.866Z,99995.44
2023-03-28T20:58:08.947Z,99981.97
2023-03-28T21:00:39.950Z,99993.19
2023-03-28T21:03:11.475Z,99986.75
2023-03-28T21:05:46.244Z,99979.69
2023-03-28T21:08:19.731Z,99976.59
2023-03-28T21:10:54.722Z,99977.31
2023-03-28T21:13:27.268Z,99983.28
2023-03-28T21:15:57.599Z,99974.59
2023-03-28T21:18:28.226Z,99980.91
2023-03-28T21:20:58.256Z,99975.03
2023-03-28T21:23:28.048Z,99968.66
2023-03-28T21:25:57.875Z,99965.88
2023-03-28T21:28:30.126Z,99953.19
2023-03-28T21:31:01.047Z,99949.63
2023-03-28T21:33:31.478Z,99957.91
2023-03-28T21:36:01.180Z,99953.50
2023-03-28T21:38:31.200Z,99964.03
2023-03-28T21:41:01.339Z,99951.88
2023-03-28T21:43:34.106Z,99943.03
2023-03-28T21:46:04.191Z,99941.97
2023-03-28T21:48:34.580Z,99942.69
2023-03-28T21:51:06.176Z,99946.31
2023-03-28T21:53:37.751Z,99941.13
2023-03-28T21:56:10.477Z,99946.75
2023-03-28T21:58:43.376Z,99938.38
2023-03-28T22:01:15.375Z,99935.78
2023-03-28T22:03:45.815Z,99925.78
2023-03-28T22:06:16.855Z,99916.31
2023-03-28T22:08:52.196Z,99928.19
2023-03-28T22:11:28.317Z,99929.97
2023-03-28T22:14:05.084Z,99927.19
2023-03-28T22:16:37.474Z,99924.66
2023-03-28T22:19:08.809Z,99922.41
2023-03-28T22:21:39.737Z,99918.94
2023-03-28T22:24:13.375Z,99917.84
2023-03-28T22:26:45.179Z,99913.81
2023-03-28T22:29:17.664Z,99916.59
2023-03-28T22:31:47.517Z,99909.84
2023-03-28T22:34:17.901Z,99909.84
2023-03-28T22:36:49.580Z,99908.63
2023-03-28T22:39:21.818Z,99912.53
2023-03-28T22:41:54.189Z,99906.06
2023-03-28T22:44:27.396Z,99906.00
2023-03-28T22:47:02.158Z,99903.34
2023-03-28T22:49:32.342Z,99905.31
2023-03-28T22:52:02.673Z,99903.75
2023-03-28T22:54:32.880Z,99883.16
2023-03-28T22:57:04.362Z,99878.88
2023-03-28T22:59:36.701Z,99883.06
2023-03-28T23:02:07.211Z,99878.78
2023-03-28T23:04:37.143Z,99882.63
2023-03-28T23:07:06.963Z,99881.94
2023-03-28T23:09:37.748Z,99874.03
2023-03-28T23:12:08.186Z,99872.97
2023-03-28T23:14:40.842Z,99865.75
2023-03-28T23:17:11.186Z,99871.38
2023-03-28T23:19:40.904Z,99868.47
2023-03-28T23:22:10.583Z,99865.09
2023-03-28T23:24:40.336Z,99861.03
2023-03-28T23:27:10.000Z,99849.88
2023-03-28T23:29:42.292Z,99851.47
2023-03-28T23:32:12.165Z,99843.81
2023-03-28T23:34:42.304Z,99843.22
2023-03-28T23:37:14.127Z,99839.06
2023-03-28T23:39:44.841Z,99841.28
2023-03-28T23:42:14.648Z,99838.09
2023-03-28T23:44:46.907Z,99838.50
2023-03-28T23:47:17.022Z,99823.16
2023-03-28T23:49:47.003Z,99822.25
2023-03-28T23:52:19.449Z,99821.94
2023-03-28T23:54:49.174Z,99809.31
2023-03-28T23:57:19.047Z,99813.41
2023-03-28T23:59:51.340Z,99818.19
